createdAt,value
2022-10-17T00:00:43.826Z,7.41
2022-10-17T00:03:25.474Z,7.40
2022-10-17T00:06:06.859Z,7.38
2022-10-17T00:08:45.488Z,7.35
2022-10-17T00:11:27.968Z,7.32
2022-10-17T00:14:05.602Z,7.27
2022-10-17T00:16:41.785Z,7.26
2022-10-17T00:19:14.487Z,7.23
2022-10-17T00:21:52.356Z,7.21
2022-10-17T00:24:24.874Z,7.17
2022-10-17T00:27:10.884Z,7.15
2022-10-17T00:30:06.732Z,7.08
2022-10-17T00:32:47.601Z,7.08
2022-10-17T00:35:24.978Z,7.00
2022-10-17T00:37:54.319Z,6.97
2022-10-17T00:40:46.886Z,6.99
2022-10-17T00:43:26.807Z,7.00
2022-10-17T00:46:15.182Z,6.96
2022-10-17T00:48:59.906Z,6.96
2022-10-17T00:51:54.742Z,6.93
2022-10-17T00:54:40.461Z,6.97
2022-10-17T00:57:12.628Z,6.93
2022-10-17T00:59:53.934Z,6.92
2022-10-17T01:02:30.816Z,6.86
2022-10-17T01:05:12.551Z,6.85
2022-10-17T01:07:47.121Z,6.85
2022-10-17T01:10:26.232Z,6.82
2022-10-17T01:13:31.538Z,6.79
2022-10-17T01:16:36.562Z,6.77
2022-10-17T01:19:21.327Z,6.76
2022-10-17T01:22:25.164Z,6.67
2022-10-17T01:25:41.516Z,6.61
2022-10-17T01:28:39.824Z,6.61
2022-10-17T01:31:26.070Z,6.60
2022-10-17T01:34:19.670Z,6.57
2022-10-17T01:37:05.750Z,6.55
2022-10-17T01:40:06.183Z,6.51
2022-10-17T01:43:09.648Z,6.41
2022-10-17T01:45:58.925Z,6.41
2022-10-17T01:48:51.085Z,6.39
2022-10-17T01:51:59.488Z,6.36
2022-10-17T01:54:43.054Z,6.39
2022-10-17T01:57:42.506Z,6.36
2022-10-17T02:00:18.635Z,6.35
2022-10-17T02:03:18.230Z,6.32
2022-10-17T02:06:00.521Z,6.29
2022-10-17T02:09:29.117Z,6.27
2022-10-17T02:12:14.842Z,6.25
2022-10-17T02:15:04.702Z,6.21
2022-10-17T02:17:59.968Z,6.23
2022-10-17T02:20:50.762Z,6.21
2022-10-17T02:23:44.669Z,6.18
2022-10-17T02:27:05.536Z,6.15
2022-10-17T02:30:15.851Z,6.12
2022-10-17T02:33:12.554Z,6.11
2022-10-17T02:35:52.539Z,6.12
2022-10-17T02:38:30.288Z,6.12
2022-10-17T02:41:13.881Z,6.11
2022-10-17T02:43:52.439Z,6.08
2022-10-17T02:46:32.893Z,6.08
2022-10-17T02:49:14.588Z,6.14
2022-10-17T02:52:16.520Z,6.09
2022-10-17T02:55:11.887Z,6.09
2022-10-17T02:57:48.443Z,6.05
2022-10-17T03:00:27.945Z,6.03
2022-10-17T03:03:06.537Z,6.03
2022-10-17T03:05:44.453Z,6.05
2022-10-17T03:08:31.951Z,6.06
2022-10-17T03:11:31.574Z,6.03
2022-10-17T03:14:10.710Z,6.00
2022-10-17T03:16:57.392Z,5.99
2022-10-17T03:19:32.460Z,5.96
2022-10-17T03:22:10.996Z,5.96
2022-10-17T03:24:48.809Z,5.98
2022-10-17T03:27:25.048Z,5.97
2022-10-17T03:30:05.578Z,5.97
2022-10-17T03:32:45.603Z,5.96
2022-10-17T03:35:23.491Z,5.98
2022-10-17T03:38:07.344Z,6.00
2022-10-17T03:40:43.581Z,6.04
2022-10-17T03:43:22.333Z,6.06
2022-10-17T03:46:01.670Z,6.06
2022-10-17T03:48:34.843Z,6.06
2022-10-17T03:51:28.240Z,6.07
2022-10-17T03:54:10.439Z,6.06
2022-10-17T03:56:47.449Z,6.08
2022-10-17T03:59:28.461Z,6.05
2022-10-17T04:02:09.323Z,6.01
2022-10-17T04:04:51.569Z,6.00
2022-10-17T04:07:21.184Z,5.97
2022-10-17T04:09:58.508Z,5.93
2022-10-17T04:12:45.307Z,5.92
2022-10-17T04:15:16.301Z,5.90
2022-10-17T04:17:44.578Z,5.91
2022-10-17T04:20:17.659Z,5.88
2022-10-17T04:22:56.517Z,5.86
2022-10-17T04:25:36.837Z,5.84
2022-10-17T04:28:18.771Z,5.84
2022-10-17T04:31:11.950Z,5.84
2022-10-17T04:34:21.367Z,5.81
2022-10-17T04:37:05.319Z,5.80
2022-10-17T04:39:41.572Z,5.80
2022-10-17T04:42:14.012Z,5.80
2022-10-17T04:45:04.307Z,5.76
2022-10-17T04:47:39.362Z,5.75
2022-10-17T04:50:12.378Z,5.74
2022-10-17T04:53:00.720Z,5.75
2022-10-17T04:55:41.961Z,5.76
2022-10-17T04:58:20.062Z,5.75
2022-10-17T05:00:56.699Z,5.74
2022-10-17T05:03:45.794Z,5.76
2022-10-17T05:06:21.444Z,5.78
2022-10-17T05:09:10.007Z,5.80
2022-10-17T05:11:44.147Z,5.76
2022-10-17T05:14:24.860Z,5.80
2022-10-17T05:17:11.346Z,5.79
2022-10-17T05:19:41.774Z,5.80
2022-10-17T05:22:28.055Z,5.81
2022-10-17T05:25:06.977Z,5.83
2022-10-17T05:27:34.243Z,5.83
2022-10-17T05:30:12.520Z,5.84
2022-10-17T05:32:45.446Z,5.87
2022-10-17T05:35:15.893Z,5.93
2022-10-17T05:38:02.601Z,5.96
2022-10-17T05:40:43.489Z,6.00
2022-10-17T05:43:28.164Z,6.03
2022-10-17T05:46:29.448Z,6.04
2022-10-17T05:49:03.598Z,6.12
2022-10-17T05:51:51.680Z,6.19
2022-10-17T05:54:24.537Z,6.29
2022-10-17T05:57:08.722Z,6.37
2022-10-17T05:59:56.319Z,6.49
2022-10-17T06:02:51.548Z,6.68
2022-10-17T06:05:31.549Z,6.82
2022-10-17T06:08:14.926Z,6.96
2022-10-17T06:10:55.108Z,7.12
2022-10-17T06:13:37.081Z,7.30
2022-10-17T06:16:42.244Z,7.48
2022-10-17T06:19:12.269Z,7.69
2022-10-17T06:21:52.395Z,7.88
2022-10-17T06:24:35.031Z,8.04
2022-10-17T06:27:17.696Z,8.22
2022-10-17T06:30:01.604Z,8.38
2022-10-17T06:32:39.526Z,8.57
2022-10-17T06:35:21.400Z,8.72
2022-10-17T06:38:01.144Z,8.90
2022-10-17T06:40:56.886Z,9.11
2022-10-17T06:43:39.632Z,9.29
2022-10-17T06:46:31.556Z,9.50
2022-10-17T06:49:30.012Z,9.70
2022-10-17T06:52:33.381Z,9.95
2022-10-17T06:55:50.063Z,10.19
2022-10-17T06:58:43.817Z,10.45
2022-10-17T07:01:40.741Z,10.72
2022-10-17T07:04:33.910Z,10.93
2022-10-17T07:07:24.296Z,11.08
2022-10-17T07:10:15.756Z,11.35
2022-10-17T07:12:58.411Z,11.54
2022-10-17T07:15:44.279Z,11.68
2022-10-17T07:18:27.368Z,11.92
2022-10-17T07:21:11.459Z,12.15
2022-10-17T07:23:59.335Z,12.27
2022-10-17T07:26:32.175Z,12.38
2022-10-17T07:29:13.985Z,12.52
2022-10-17T07:32:18.472Z,12.71
2022-10-17T07:35:21.364Z,12.88
2022-10-17T07:38:11.968Z,13.03
2022-10-17T07:40:51.173Z,13.17
2022-10-17T07:43:30.996Z,13.13
2022-10-17T07:46:11.595Z,13.25
2022-10-17T07:48:50.042Z,13.37
2022-10-17T07:51:34.029Z,13.55
2022-10-17T07:54:12.230Z,13.61
2022-10-17T07:56:53.710Z,13.66
2022-10-17T07:59:38.642Z,13.80
2022-10-17T08:02:23.761Z,13.83
2022-10-17T08:04:55.947Z,13.97
2022-10-17T08:07:35.216Z,14.10
2022-10-17T08:10:16.722Z,14.15
2022-10-17T08:13:01.822Z,14.32
2022-10-17T08:15:45.517Z,14.33
2022-10-17T08:18:20.352Z,14.31
2022-10-17T08:20:58.050Z,14.34
2022-10-17T08:23:35.814Z,14.42
2022-10-17T08:26:20.041Z,14.57
2022-10-17T08:29:06.406Z,14.61
2022-10-17T08:31:47.484Z,14.76
2022-10-17T08:34:22.911Z,14.78
2022-10-17T08:37:04.587Z,14.77
2022-10-17T08:39:44.793Z,14.83
2022-10-17T08:42:29.851Z,15.02
2022-10-17T08:45:39.182Z,15.19
2022-10-17T08:48:20.623Z,15.13
2022-10-17T08:51:11.590Z,15.39
2022-10-17T08:54:00.829Z,15.40
2022-10-17T08:56:51.685Z,15.41
2022-10-17T08:59:37.310Z,15.34
2022-10-17T09:02:53.262Z,15.50
2022-10-17T09:05:59.180Z,15.61
2022-10-17T09:08:43.686Z,15.86
2022-10-17T09:11:38.695Z,15.87
2022-10-17T09:14:27.005Z,15.96
2022-10-17T09:17:14.510Z,16.10
2022-10-17T09:20:07.471Z,16.10
2022-10-17T09:22:52.390Z,16.25
2022-10-17T09:25:41.297Z,16.25
2022-10-17T09:28:36.096Z,16.37
2022-10-17T09:31:29.485Z,16.59
2022-10-17T09:34:09.401Z,16.58
2022-10-17T09:36:48.686Z,16.64
2022-10-17T09:39:26.844Z,16.71
2022-10-17T09:42:07.693Z,16.74
2022-10-17T09:45:19.673Z,16.89
2022-10-17T09:48:13.401Z,17.09
2022-10-17T09:50:42.891Z,17.17
2022-10-17T09:53:36.177Z,17.40
2022-10-17T09:56:13.036Z,17.43
2022-10-17T09:59:00.790Z,17.55
2022-10-17T10:01:44.439Z,17.57
2022-10-17T10:04:21.596Z,17.75
2022-10-17T10:07:15.989Z,17.84
2022-10-17T10:09:50.395Z,17.85
2022-10-17T10:12:39.003Z,17.95
2022-10-17T10:15:37.794Z,18.00
2022-10-17T10:18:42.068Z,18.02
2022-10-17T10:21:22.729Z,18.10
2022-10-17T10:24:13.381Z,18.27
2022-10-17T10:26:56.096Z,18.41
2022-10-17T10:29:35.388Z,18.41
2022-10-17T10:32:20.580Z,18.55
2022-10-17T10:35:23.961Z,18.70
2022-10-17T10:38:04.832Z,18.78
2022-10-17T10:40:46.756Z,18.81
2022-10-17T10:44:01.911Z,18.93
2022-10-17T10:46:43.528Z,18.98
2022-10-17T10:49:34.089Z,19.01
2022-10-17T10:52:15.150Z,19.15
2022-10-17T10:55:14.494Z,19.24
2022-10-17T10:57:52.902Z,19.21
2022-10-17T11:00:36.642Z,19.11
2022-10-17T11:03:26.537Z,19.22
2022-10-17T11:06:36.013Z,19.29
2022-10-17T11:09:21.621Z,19.47
2022-10-17T11:12:55.830Z,19.53
2022-10-17T11:15:39.879Z,19.43
2022-10-17T11:18:46.295Z,19.49
2022-10-17T11:24:50.049Z,19.79
2022-10-17T11:28:30.124Z,19.94
2022-10-17T11:31:25.007Z,20.05
2022-10-17T11:34:28.904Z,20.13
2022-10-17T11:37:40.864Z,20.08
2022-10-17T11:40:36.805Z,20.23
2022-10-17T11:43:22.246Z,20.30
2022-10-17T11:46:04.448Z,20.27
2022-10-17T11:48:47.207Z,20.31
2022-10-17T11:54:41.970Z,20.31
2022-10-17T11:57:29.550Z,20.31
2022-10-17T12:00:13.611Z,20.36
2022-10-17T12:03:19.047Z,20.44
2022-10-17T12:05:59.276Z,20.51
2022-10-17T12:08:41.719Z,20.36
2022-10-17T12:11:36.950Z,20.34
2022-10-17T12:14:39.200Z,20.43
2022-10-17T12:17:41.193Z,20.52
2022-10-17T12:20:29.015Z,20.55
2022-10-17T12:23:23.864Z,20.52
2022-10-17T12:26:05.277Z,20.48
2022-10-17T12:28:45.604Z,20.56
2022-10-17T12:31:21.945Z,20.59
2022-10-17T12:34:04.953Z,20.70
2022-10-17T12:36:46.980Z,20.60
2022-10-17T12:39:27.783Z,20.76
2022-10-17T12:42:06.550Z,20.74
2022-10-17T12:44:38.673Z,20.71
2022-10-17T12:47:55.360Z,20.73
2022-10-17T12:51:34.065Z,20.85
2022-10-17T12:54:07.133Z,20.80
2022-10-17T12:56:47.020Z,20.74
2022-10-17T12:59:37.341Z,20.74
2022-10-17T13:02:19.205Z,20.89
2022-10-17T13:05:08.675Z,20.98
2022-10-17T13:07:44.478Z,21.00
2022-10-17T13:10:47.089Z,20.98
2022-10-17T13:13:31.062Z,21.21
2022-10-17T13:16:08.929Z,21.11
2022-10-17T13:18:52.659Z,21.25
2022-10-17T13:21:36.341Z,21.37
2022-10-17T13:24:33.406Z,21.52
2022-10-17T13:27:28.674Z,21.73
2022-10-17T13:30:05.330Z,21.51
2022-10-17T13:32:41.978Z,21.53
2022-10-17T13:35:36.569Z,21.53
2022-10-17T13:38:29.545Z,21.34
2022-10-17T13:41:35.240Z,21.23
2022-10-17T13:44:20.466Z,21.29
2022-10-17T13:46:55.986Z,21.21
2022-10-17T13:49:45.457Z,21.21
2022-10-17T13:52:22.541Z,21.38
2022-10-17T13:55:01.313Z,21.39
2022-10-17T13:57:34.358Z,21.12
2022-10-17T14:00:22.926Z,21.07
2022-10-17T14:03:06.023Z,20.91
2022-10-17T14:05:56.498Z,20.71
2022-10-17T14:08:32.152Z,20.68
2022-10-17T14:11:26.573Z,20.75
2022-10-17T14:14:09.816Z,20.72
2022-10-17T14:16:53.366Z,20.72
2022-10-17T14:19:40.791Z,20.68
2022-10-17T14:22:34.541Z,20.48
2022-10-17T14:25:30.002Z,20.52
2022-10-17T14:28:18.416Z,20.47
2022-10-17T14:31:13.423Z,20.55
2022-10-17T14:33:56.224Z,20.48
2022-10-17T14:36:43.310Z,20.41
2022-10-17T14:39:32.371Z,20.38
2022-10-17T14:42:08.117Z,20.42
2022-10-17T14:44:48.486Z,20.33
2022-10-17T14:47:50.102Z,20.28
2022-10-17T14:50:36.254Z,20.26
2022-10-17T14:53:30.932Z,20.26
2022-10-17T14:56:22.502Z,20.28
2022-10-17T14:59:05.676Z,20.23
2022-10-17T15:01:42.765Z,20.14
2022-10-17T15:04:15.546Z,20.07
2022-10-17T15:06:53.829Z,20.02
2022-10-17T15:09:39.925Z,19.72
2022-10-17T15:12:17.481Z,19.41
2022-10-17T15:14:53.247Z,19.07
2022-10-17T15:17:40.183Z,18.72
2022-10-17T15:20:21.133Z,18.41
2022-10-17T15:22:59.523Z,18.01
2022-10-17T15:25:33.260Z,17.72
2022-10-17T15:28:10.919Z,17.34
2022-10-17T15:30:46.156Z,17.18
2022-10-17T15:33:20.909Z,16.99
2022-10-17T15:38:48.018Z,16.82
2022-10-17T15:41:20.264Z,16.49
2022-10-17T15:43:55.275Z,16.41
2022-10-17T15:46:40.429Z,16.17
2022-10-17T15:49:18.085Z,15.89
2022-10-17T15:51:55.554Z,15.86
2022-10-17T15:54:35.598Z,15.75
2022-10-17T15:57:23.300Z,15.63
2022-10-17T16:00:01.420Z,15.48
2022-10-17T16:02:37.428Z,15.36
2022-10-17T16:05:26.430Z,15.14
2022-10-17T16:08:13.363Z,15.01
2022-10-17T16:10:51.215Z,14.80
2022-10-17T16:13:25.721Z,14.54
2022-10-17T16:16:05.301Z,14.48
2022-10-17T16:18:41.064Z,14.36
2022-10-17T16:21:12.867Z,14.17
2022-10-17T16:23:50.804Z,14.01
2022-10-17T16:26:20.092Z,13.89
2022-10-17T16:28:56.155Z,13.77
2022-10-17T16:31:38.971Z,13.67
2022-10-17T16:34:16.977Z,13.55
2022-10-17T16:36:56.812Z,13.40
2022-10-17T16:39:34.213Z,13.34
2022-10-17T16:42:08.549Z,13.24
2022-10-17T16:44:35.494Z,13.15
2022-10-17T16:47:13.273Z,13.05
2022-10-17T16:49:45.554Z,12.96
2022-10-17T16:52:18.121Z,12.89
2022-10-17T16:54:50.914Z,12.78
2022-10-17T16:57:24.037Z,12.70
2022-10-17T16:59:56.437Z,12.57
2022-10-17T17:02:29.275Z,12.50
2022-10-17T17:05:10.035Z,12.38
2022-10-17T17:07:42.919Z,12.31
2022-10-17T17:10:17.904Z,12.28
2022-10-17T17:12:50.544Z,12.20
2022-10-17T17:15:22.916Z,12.13
2022-10-17T17:18:05.327Z,12.11
2022-10-17T17:20:40.719Z,12.03
2022-10-17T17:23:16.311Z,11.89
2022-10-17T17:25:50.687Z,11.76
2022-10-17T17:28:28.107Z,11.67
2022-10-17T17:31:09.269Z,11.55
2022-10-17T17:33:52.089Z,11.40
2022-10-17T17:36:29.420Z,11.37
2022-10-17T17:39:03.507Z,11.32
2022-10-17T17:41:35.775Z,11.28
2022-10-17T17:44:15.573Z,11.28
2022-10-17T17:46:54.534Z,11.28
2022-10-17T17:49:31.802Z,11.27
2022-10-17T17:52:09.120Z,11.24
2022-10-17T17:54:46.567Z,11.21
2022-10-17T17:57:24.471Z,11.21
2022-10-17T17:59:59.517Z,11.15
2022-10-17T18:02:59.832Z,11.12
2022-10-17T18:05:35.448Z,11.05
2022-10-17T18:08:07.876Z,11.04
2022-10-17T18:10:58.818Z,11.00
2022-10-17T18:13:34.802Z,10.95
2022-10-17T18:16:13.413Z,10.91
2022-10-17T18:18:53.582Z,10.84
2022-10-17T18:21:28.492Z,10.77
2022-10-17T18:24:12.055Z,10.74
2022-10-17T18:26:48.931Z,10.73
2022-10-17T18:29:29.462Z,10.71
2022-10-17T18:32:07.630Z,10.68
2022-10-17T18:34:44.346Z,10.65
2022-10-17T18:37:19.779Z,10.62
2022-10-17T18:40:03.198Z,10.59
2022-10-17T18:42:42.583Z,10.52
2022-10-17T18:45:21.131Z,10.49
2022-10-17T18:47:58.833Z,10.43
2022-10-17T18:50:39.369Z,10.38
2022-10-17T18:53:18.424Z,10.30
2022-10-17T18:55:50.628Z,10.18
2022-10-17T18:58:28.484Z,10.14
2022-10-17T19:01:07.041Z,10.04
2022-10-17T19:03:39.141Z,10.01
2022-10-17T19:06:20.449Z,9.95
2022-10-17T19:08:53.466Z,9.93
2022-10-17T19:11:27.388Z,9.85
2022-10-17T19:13:59.114Z,9.90
2022-10-17T19:16:44.008Z,9.78
2022-10-17T19:19:23.329Z,9.73
2022-10-17T19:22:02.333Z,9.68
2022-10-17T19:24:39.486Z,9.69
2022-10-17T19:27:20.287Z,9.64
2022-10-17T19:30:01.123Z,9.58
2022-10-17T19:32:33.132Z,9.56
2022-10-17T19:35:11.190Z,9.53
2022-10-17T19:37:54.991Z,9.50
2022-10-17T19:40:38.851Z,9.47
2022-10-17T19:43:20.982Z,9.46
2022-10-17T19:46:04.655Z,9.43
2022-10-17T19:48:39.454Z,9.38
2022-10-17T19:51:19.859Z,9.33
2022-10-17T19:54:00.274Z,9.34
2022-10-17T19:56:44.129Z,9.30
2022-10-17T19:59:28.588Z,9.33
2022-10-17T20:02:16.236Z,9.31
2022-10-17T20:05:00.185Z,9.30
2022-10-17T20:07:51.282Z,9.29
2022-10-17T20:10:26.611Z,9.29
2022-10-17T20:13:13.156Z,9.27
2022-10-17T20:16:08.714Z,9.19
2022-10-17T20:18:41.267Z,9.17
2022-10-17T20:21:23.470Z,9.14
2022-10-17T20:23:56.365Z,9.10
2022-10-17T20:26:38.531Z,9.06
2022-10-17T20:29:19.736Z,9.03
2022-10-17T20:32:02.709Z,8.99
2022-10-17T20:34:41.168Z,8.95
2022-10-17T20:37:14.826Z,8.91
2022-10-17T20:40:16.831Z,8.87
2022-10-17T20:43:01.340Z,8.82
2022-10-17T20:45:50.813Z,8.79
2022-10-17T20:48:30.736Z,8.71
2022-10-17T20:51:08.518Z,8.66
2022-10-17T20:53:47.146Z,8.63
2022-10-17T20:56:23.595Z,8.57
2022-10-17T20:59:07.596Z,8.56
2022-10-17T21:01:44.963Z,8.47
2022-10-17T21:04:44.710Z,8.47
2022-10-17T21:07:22.618Z,8.45
2022-10-17T21:10:00.313Z,8.38
2022-10-17T21:12:53.269Z,8.36
2022-10-17T21:15:33.443Z,8.34
2022-10-17T21:18:20.371Z,8.27
2022-10-17T21:20:55.084Z,8.22
2022-10-17T21:23:31.083Z,8.18
2022-10-17T21:26:07.223Z,8.19
2022-10-17T21:28:43.055Z,8.15
2022-10-17T21:31:24.273Z,8.10
2022-10-17T21:34:18.675Z,8.05
2022-10-17T21:36:54.925Z,8.07
2022-10-17T21:39:30.505Z,7.99
2022-10-17T21:42:11.050Z,7.94
2022-10-17T21:44:46.397Z,7.92
2022-10-17T21:47:22.328Z,7.94
2022-10-17T21:50:04.120Z,7.92
2022-10-17T21:52:36.263Z,7.88
2022-10-17T21:55:15.856Z,7.86
2022-10-17T21:57:50.605Z,7.83
2022-10-17T22:00:39.377Z,7.80
2022-10-17T22:03:19.371Z,7.79
2022-10-17T22:06:33.419Z,7.77
2022-10-17T22:09:11.027Z,7.75
2022-10-17T22:11:47.133Z,7.75
2022-10-17T22:14:26.798Z,7.71
2022-10-17T22:17:04.536Z,7.68
2022-10-17T22:19:41.743Z,7.65
2022-10-17T22:22:16.483Z,7.58
2022-10-17T22:24:53.747Z,7.53
2022-10-17T22:27:32.142Z,7.54
2022-10-17T22:30:13.325Z,7.53
2022-10-17T22:32:54.989Z,7.51
2022-10-17T22:35:39.843Z,7.53
2022-10-17T22:38:15.938Z,7.59
2022-10-17T22:40:51.489Z,7.56
2022-10-17T22:43:26.051Z,7.52
2022-10-17T22:46:01.498Z,7.50
2022-10-17T22:48:45.512Z,7.43
2022-10-17T22:54:09.202Z,7.34
2022-10-17T22:56:41.553Z,7.29
2022-10-17T22:59:21.710Z,7.27
2022-10-17T23:02:02.114Z,7.24
2022-10-17T23:04:41.755Z,7.22
2022-10-17T23:07:22.271Z,7.15
2022-10-17T23:10:00.386Z,7.14
2022-10-17T23:12:35.153Z,7.16
2022-10-17T23:15:16.060Z,7.16
2022-10-17T23:17:51.545Z,7.17
2022-10-17T23:20:31.918Z,7.14
2022-10-17T23:23:07.529Z,7.15
2022-10-17T23:25:42.414Z,7.15
2022-10-17T23:28:24.021Z,7.12
2022-10-17T23:31:14.563Z,7.10
2022-10-17T23:33:50.549Z,7.07
2022-10-17T23:36:23.751Z,7.03
2022-10-17T23:39:01.149Z,7.03
2022-10-17T23:41:31.117Z,7.03
2022-10-17T23:44:13.171Z,6.97
2022-10-17T23:46:51.290Z,6.97
2022-10-17T23:49:25.233Z,6.96
2022-10-17T23:52:04.471Z,6.91
2022-10-17T23:54:44.479Z,6.91
2022-10-17T23:57:28.817Z,6.85
